Mt. Laguna (440) Station Data

Red Flag Warning: No
Fire Weather Zone: 258
SDGE Region: Mountain Empire
Lat/Lon: 32.878/-116.424

Observations

Time Wind Speed/Gust Temp(F) RH Fuel Moist Fuel Temp(F) Dewpt(F) Tmax(F) Tmin(F) Accum Precip 10-min Precip SL Press(mb)
5/24 8:30am 259 5 G 7 60° 89% - - 57° 60.9° 57.4° - - 1013.0
5/24 8:20am 226 2 G 6 68° 13% - - 15° 69° 56.9° - - 861.0
5/24 8:10am 234 3 G 8 68° 12% - - 14° 69° 56.9° - - 861.0
5/24 8:00am 229 3 G 8 69° 11% - - 13° 69° 56.9° - - 860.0
5/24 7:50am 226 2 G 4 68° 11% - - 12° 68.8° 56.9° - - 860.0
5/24 7:40am 228 2 G 4 68° 11% - - 11° 68.2° 56.9° - - 860.0
5/24 7:30am 225 2 G 4 67° 11% - - 11° 67.4° 56.9° - - 860.0
5/24 7:20am 223 2 G 4 66° 11% - - 11° 67.2° 56.9° - - 860.0
5/24 7:10am 223 2 G 3 65° 11% - - 10° 65.5° 56.9° - - 859.0
5/24 7:00am 224 2 G 4 65° 10% - - 65.5° 56.9° - - 859.0
5/24 6:50am 221 2 G 4 64° 11% - - 64.1° 56.9° - - 859.0
5/24 6:40am 222 2 G 3 64° 9% - - 64.1° 56.9° - - 858.0
5/24 6:30am 223 2 G 4 63° 9% - - 63.5° 56.9° - - 858.0
5/24 6:20am 222 2 G 4 62° 9% - - 62.4° 56.9° - - 858.0
5/24 6:10am 224 2 G 4 62° 8% - - 62.4° 56.9° - - 857.0
5/24 6:00am 210 2 G 3 60° 9% - - 62.4° 56.9° - - 857.0
5/24 5:50am 197 1 G 2 59° 10% - - 62.4° 56.9° - - 857.0
5/24 5:40am 198 1 G 3 59° 10% - - 62.4° 56.9° - - 857.0
5/24 5:30am 207 2 G 3 59° 10% - - 62.4° 56.9° - - 857.0
5/24 5:20am 213 2 G 3 59° 11% - - 62.4° 56.9° - - 858.0
5/24 5:10am 217 2 G 3 59° 11% - - 62.4° 56.9° - - 858.0
5/24 5:00am 215 2 G 3 59° 12% - - 62.4° 56.9° - - 858.0
5/24 4:50am 220 2 G 4 59° 13% - - 62.4° 56.9° - - 858.0
5/24 4:40am 219 2 G 3 58° 13% - - 62.4° 56.9° - - 858.0
5/24 4:30am 209 2 G 2 57° 14% - - 62.4° 56.9° - - 859.0
5/24 4:20am 212 2 G 3 58° 13% - - 62.4° 57.2° - - 858.0
5/24 4:10am 214 1 G 2 59° 12% - - 62.4° 57.3° - - 858.0
5/24 4:00am 212 2 G 3 59° 11% - - 62.4° 57.3° - - 858.0
5/24 3:50am 214 2 G 3 60° 10% - - 62.4° 57.3° - - 858.0
5/24 3:40am 217 2 G 4 60° 10% - - 62.4° 57.3° - - 858.0
5/24 3:30am 212 2 G 3 60° 9% - - 62.4° 57.3° - - 857.0
5/24 3:20am 206 1 G 3 59° 10% - - 62.4° 57.3° - - 857.0
5/24 3:10am 176 1 G 2 58° 11% - - 62.4° 57.3° - - 858.0
5/24 3:00am 150 0 G 2 58° 11% - - 62.4° 57.5° - - 858.0
5/24 2:50am 174 1 G 2 59° 11% - - 62.4° 57.5° - - 858.0
5/24 2:40am 183 1 G 2 59° 11% - - 62.4° 57.5° - - 858.0
5/24 2:30am 196 1 G 2 59° 11% - - 62.4° 57.5° - - 858.0
5/24 2:20am 190 1 G 2 59° 12% - - 62.4° 57.5° - - 858.0
5/24 2:10am 171 1 G 1 58° 13% - - 62.4° 57.5° - - 859.0
5/24 2:00am 146 0 G 1 59° 14% - - 10° 62.4° 57.5° - - 859.0
5/24 1:50am 205 1 G 2 60° 14% - - 11° 62.4° 57.5° - - 859.0
5/24 1:40am 209 1 G 3 60° 16% - - 14° 62.4° 57.5° - - 860.0
5/24 1:30am 221 2 G 3 61° 16% - - 15° 62.4° 57.5° - - 860.0
5/24 1:20am 215 2 G 3 61° 17% - - 16° 62.4° 57.5° - - 861.0
5/24 1:10am 225 2 G 5 62° 16% - - 15° 62.4° 57.5° - - 860.0
5/24 1:00am 220 2 G 4 62° 14% - - 13° 62.1° 57.5° - - 860.0
5/24 12:50am 218 2 G 3 61° 14% - - 12° 61.8° 57.5° - - 860.0
5/24 12:40am 184 1 G 3 59° 16% - - 13° 60.7° 57.5° - - 860.0
5/24 12:30am 133 0 G 1 58° 19% - - 16° 58.5° 57.5° - - 861.0
5/24 12:20am 141 0 G 1 58° 19% - - 16° 58.5° 58° - - 861.0
5/24 12:10am 131 0 G 1 58° 19% - - 16° 58.4° 58° - - 861.0
5/24 12:00am 115 0 G 0 58° 19% - - 16° 81.6° 54.3° - - 861.0
5/23 11:50pm 150 0 G 1 58° 19% - - 16° 81.6° 54.3° - - 861.0
5/23 11:40pm 145 0 G 1 58° 19% - - 16° 81.6° 54.3° - - 861.0
5/23 11:30pm 119 0 G 1 59° 19% - - 16° 81.6° 54.3° - - 861.0
5/23 11:20pm 105 0 G 1 59° 19% - - 17° 81.6° 54.3° - - 861.0
5/23 11:10pm 116 0 G 1 59° 20% - - 18° 81.6° 54.3° - - 862.0
5/23 11:00pm 118 0 G 1 60° 20% - - 18° 81.6° 54.3° - - 862.0
5/23 10:50pm 111 1 G 1 60° 20% - - 18° 81.6° 54.3° - - 862.0
5/23 10:40pm 114 0 G 1 60° 20% - - 19° 81.6° 54.3° - - 862.0
5/23 10:30pm 115 0 G 1 60° 21% - - 19° 81.6° 54.3° - - 862.0
5/23 10:20pm 117 0 G 1 60° 21% - - 20° 81.6° 54.3° - - 862.0
5/23 10:10pm 116 0 G 1 60° 21% - - 20° 81.6° 54.3° - - 862.0
5/23 10:00pm 120 0 G 1 60° 21% - - 21° 81.6° 54.3° - - 862.0
5/23 9:50pm 124 0 G 1 60° 21% - - 21° 81.6° 54.3° - - 862.0
5/23 9:40pm 144 0 G 1 61° 21% - - 20° 81.6° 54.3° - - 862.0
5/23 9:30pm 135 0 G 1 61° 21% - - 21° 81.6° 54.3° - - 862.0
5/23 9:20pm 136 0 G 1 60° 22% - - 21° 81.6° 54.3° - - 863.0
5/23 9:10pm 121 0 G 1 60° 24% - - 23° 81.6° 54.3° - - 864.0
5/23 9:00pm 192 1 G 3 61° 25% - - 25° 81.6° 54.3° - - 864.0
5/23 8:50pm 216 2 G 2 62° 25% - - 25° 81.6° 54.3° - - 864.0
5/23 8:40pm 203 1 G 2 62° 24% - - 26° 81.6° 54.3° - - 865.0
5/23 8:30pm 201 1 G 2 63° 25% - - 27° 81.6° 54.3° - - 865.0
5/23 8:20pm 203 1 G 2 64° 26% - - 28° 81.6° 54.3° - - 866.0
5/23 8:10pm 220 2 G 3 65° 28% - - 31° 81.6° 54.3° - - 867.0
5/23 8:00pm 222 2 G 3 65° 30% - - 33° 81.6° 54.3° - - 867.0
5/23 7:50pm 224 2 G 3 66° 30% - - 34° 81.6° 54.3° - - 868.0
5/23 7:40pm 230 2 G 4 67° 29% - - 34° 81.6° 54.3° - - 867.0
5/23 7:30pm 230 2 G 5 68° 27% - - 33° 81.6° 54.3° - - 867.0
5/23 7:20pm 230 2 G 4 69° 24% - - 31° 81.6° 54.3° - - 866.0
5/23 7:10pm 233 2 G 7 70° 23% - - 30° 81.6° 54.3° - - 866.0
5/23 7:00pm 236 1 G 6 70° 23% - - 31° 81.6° 54.3° - - 866.0
5/23 6:50pm 247 1 G 4 71° 24% - - 32° 81.6° 54.3° - - 866.0
5/23 6:40pm 252 1 G 5 72° 22% - - 30° 81.6° 54.3° - - 866.0
5/23 6:30pm 231 3 G 8 72° 19% - - 27° 81.6° 54.3° - - 865.0
5/23 6:20pm 227 3 G 7 72° 18% - - 27° 81.6° 54.3° - - 865.0
5/23 6:10pm 226 3 G 8 73° 18% - - 27° 81.6° 54.3° - - 865.0
5/23 6:00pm 233 2 G 6 73° 17% - - 26° 81.6° 54.3° - - 864.0
5/23 5:50pm 251 2 G 7 73° 17% - - 27° 81.6° 54.3° - - 865.0
5/23 5:40pm 230 3 G 6 74° 18% - - 28° 81.6° 54.3° - - 865.0
5/23 5:30pm 231 3 G 7 73° 20% - - 29° 81.6° 54.3° - - 866.0
5/23 5:20pm 250 2 G 8 73° 21% - - 31° 81.6° 54.3° - - 866.0
5/23 5:10pm 235 4 G 9 73° 22% - - 32° 81.6° 54.3° - - 867.0
5/23 5:00pm 235 2 G 9 74° 22% - - 32° 81.6° 54.3° - - 867.0
5/23 4:50pm 261 2 G 7 74° 21% - - 32° 81.6° 54.3° - - 867.0
5/23 4:40pm 271 2 G 7 75° 23% - - 34° 81.6° 54.3° - - 868.0
5/23 4:30pm 230 3 G 9 75° 23% - - 36° 81.6° 54.3° - - 868.0
5/23 4:20pm 232 3 G 10 75° 24% - - 35° 81.6° 54.3° - - 868.0
5/23 4:10pm 250 3 G 9 75° 23% - - 35° 81.6° 54.3° - - 868.0
5/23 4:00pm 242 3 G 9 76° 23% - - 36° 81.6° 54.3° - - 868.0
5/23 3:50pm 251 3 G 8 77° 23% - - 37° 81.6° 54.3° - - 869.0
5/23 3:40pm 290 2 G 5 77° 23% - - 37° 81.6° 54.3° - - 869.0
5/23 3:30pm 268 3 G 8 77° 24% - - 37° 81.6° 54.3° - - 869.0
5/23 3:20pm 253 2 G 6 78° 25% - - 39° 81.6° 54.3° - - 869.0
5/23 3:10pm 245 3 G 10 78° 25% - - 39° 81.6° 54.3° - - 869.0
5/23 3:00pm 215 3 G 8 79° 25% - - 40° 81.6° 54.3° - - 870.0
5/23 2:50pm 236 2 G 7 79° 25% - - 40° 81.6° 54.3° - - 870.0
5/23 2:40pm 247 2 G 7 80° 24% - - 40° 81.6° 54.3° - - 869.0
5/23 2:30pm 266 1 G 5 80° 22% - - 38° 81.6° 54.3° - - 869.0
5/23 2:20pm 219 4 G 11 79° 21% - - 36° 80.9° 54.3° - - 868.0
5/23 2:10pm 304 2 G 8 80° 13% - - 24° 80.9° 54.3° - - 865.0
5/23 2:00pm 181 2 G 6 79° 13% - - 24° 80.9° 54.3° - - 865.0
5/23 1:50pm 57 3 G 6 79° 13% - - 24° 80.9° 54.3° - - 865.0
5/23 1:40pm 56 2 G 7 80° 13% - - 25° 80.9° 54.3° - - 865.0
5/23 1:30pm 21 2 G 6 79° 13% - - 25° 80.9° 54.3° - - 865.0
5/23 1:20pm 14 2 G 7 79° 13% - - 24° 80.9° 54.3° - - 865.0
5/23 1:10pm 42 2 G 7 79° 13% - - 24° 80.9° 54.3° - - 865.0
5/23 1:00pm 105 1 G 6 80° 13% - - 24° 80.9° 54.3° - - 865.0
5/23 12:50pm 25 2 G 6 79° 13% - - 25° 80.8° 54.3° - - 865.0
5/23 12:40pm 22 2 G 9 79° 13% - - 24° 80.1° 54.3° - - 865.0
5/23 12:30pm 75 2 G 10 78° 13% - - 24° 80.1° 54.3° - - 865.0
5/23 12:20pm 2 2 G 7 78° 13% - - 23° 80.1° 54.3° - - 864.0
5/23 12:10pm 21 3 G 8 79° 13% - - 24° 80.1° 54.3° - - 865.0
5/23 12:00pm 220 2 G 6 79° 13% - - 25° 80.1° 54.3° - - 865.0
5/23 11:50am 39 2 G 7 78° 14% - - 25° 79.5° 54.3° - - 865.0
5/23 11:40am 52 2 G 7 79° 14% - - 25° 79.5° 54.3° - - 865.0
5/23 11:30am 311 2 G 5 78° 14% - - 25° 79.3° 54.3° - - 865.0
5/23 11:20am 113 3 G 7 78° 14% - - 24° 79.3° 54.3° - - 864.0
5/23 11:10am 2 2 G 5 78° 13% - - 24° 79.3° 54.3° - - 864.0
5/23 11:00am 34 1 G 4 78° 14% - - 24° 79.3° 54.3° - - 864.0
5/23 10:50am 86 1 G 6 77° 13% - - 23° 78° 54.3° - - 864.0
5/23 10:40am 76 2 G 8 77° 14% - - 24° 78° 54.3° - - 864.0
5/23 10:30am 340 2 G 4 77° 15% - - 26° 78° 54.3° - - 865.0
5/23 10:20am 38 2 G 6 77° 14% - - 24° 77.6° 54.3° - - 864.0
5/23 10:10am 27 1 G 5 77° 15% - - 26° 77.6° 54.3° - - 865.0
5/23 10:00am 29 2 G 4 76° 15% - - 25° 77.6° 54.3° - - 864.0
5/23 9:50am 92 2 G 4 77° 15% - - 26° 77.6° 54.3° - - 864.0
5/23 9:40am 331 1 G 3 77° 16% - - 27° 77.5° 54.3° - - 865.0
5/23 9:30am 348 1 G 3 75° 17% - - 27° 76° 54.3° - - 864.0
5/23 9:20am 360 1 G 3 75° 17% - - 27° 75.8° 54.3° - - 864.0
5/23 9:10am 12 2 G 5 75° 17% - - 27° 75.8° 54.3° - - 864.0
5/23 9:00am 7 2 G 4 74° 18% - - 27° 75.1° 54.3° - - 864.0
5/23 8:50am 7 2 G 4 74° 18% - - 28° 75° 54.3° - - 864.0
5/23 8:40am 32 1 G 3 75° 18% - - 28° 75° 54.3° - - 864.0
5/23 8:30am 46 0 G 2 73° 22% - - 32° 74.1° 54.3° - - 866.0
5/23 8:20am 65 1 G 2 72° 24% - - 33° 72.5° 54.3° - - 866.0
5/23 8:10am 24 0 G 1 71° 30% - - 37° 71.1° 54.3° - - 868.0
5/23 8:00am 71 1 G 3 69° 36% - - 41° 69.7° 54.3° - - 870.0
5/23 7:50am 112 1 G 2 66° 32% - - 36° 67.4° 54.3° - - 868.0
5/23 7:40am 104 0 G 1 66° 36% - - 38° 65.9° 54.3° - - 869.0
5/23 7:30am 96 0 G 1 64° 33% - - 35° 65.8° 54.3° - - 868.0
5/23 7:20am 101 0 G 1 63° 36% - - 36° 63.5° 54.3° - - 868.0
5/23 7:10am 111 0 G 2 62° 33% - - 32° 63.3° 54.3° - - 867.0
5/23 7:00am 105 0 G 1 60° 35% - - 32° 60.5° 54.3° - - 868.0
5/23 6:50am 93 0 G 0 58° 34% - - 30° 59.4° 54.3° - - 867.0
5/23 6:40am 101 0 G 1 56° 36% - - 29° 58.2° 54.3° - - 867.0
5/23 6:30am 94 0 G 1 56° 34% - - 28° 58.2° 54.3° - - 866.0
5/23 6:20am 100 0 G 1 55° 36% - - 28° 58.2° 54.3° - - 867.0
5/23 6:10am 98 0 G 0 56° 35% - - 28° 58.2° 54.3° - - 867.0
5/23 6:00am 98 0 G 0 55° 36% - - 28° 58.2° 54.3° - - 867.0